Listado único de aspirantes (Periodo de valoración 31 octubre de 2021)


* Listado ordenado por Apellidos, Nombre. Recuerde que también puede ordenarlo por el Total Autobaremo

Listado único de aspirantes admitidos en turno libre en la bolsa de selección de personal estatutario temporal, categoría: Enfermera-Area de Quirófano
Apellidos, Nombre Exp. SAS Auto. Exp. NO SAS Auto. Form. Auto. otros méritos Total Auto. Exp. SAS Baremo Exp. NO SAS Baremo Form. Baremo Otros méritos Punt. Total Baremo Fecha Act.
RUIZ RODRIGUEZ, JUAN MANUEL 22,200 21,900 36,000 0,000 80,100 22,200 21,900 36,000 0,000 80,100 15/12/2022
RUIZ RODRÍGUEZ, MARÍA 15,600 0,800 36,000 1,200 53,600 15,600 0,250 36,000 1,200 53,050 15/12/2022
RUIZ RODRIGUEZ, MARÍA JOSÉ 6,900 0,000 36,000 0,000 42,900 6,900 0,000 36,000 0,000 42,900 15/12/2022
RUIZ RONDAN, SONIA 12,600 1,200 36,000 2,300 52,100 12,600 1,200 36,000 2,000 51,800 15/12/2022
RUIZ ROSETY, ELENA 45,900 13,800 34,000 11,550 105,250 45,900 0,000 29,375 1,250 76,525 15/12/2022
RUIZ RUBIO, ROSALIA 0,000 46,650 36,000 4,000 86,650 0,000 32,850 33,000 4,000 69,850 15/12/2022
RUIZ RUIZ, SARA AMABEL 2,700 14,400 32,125 3,000 52,225 2,700 14,400 18,550 3,000 38,650 15/12/2022
RUIZ SÁNCHEZ, CLAUDIA 0,000 9,300 36,000 0,000 45,300 0,000 9,300 36,000 0,000 45,300 15/12/2022
RUIZ SANCHEZ, EVA Mª 20,400 7,700 30,000 0,000 58,100 20,400 1,800 30,000 0,000 52,200 15/12/2022
RUIZ SANCHEZ, JOSEFA 56,400 5,100 36,000 3,400 100,900 56,400 5,100 36,000 3,050 100,550 15/12/2022
RUIZ SIMARRO, ANA 10,800 12,300 36,000 3,200 62,300 10,800 12,300 36,000 3,175 62,275 15/12/2022
RUIZ TORRES, JOSÉ 12,000 11,700 36,000 0,000 59,700 12,000 11,700 36,000 0,000 59,700 15/12/2022
RUIZ TORRES, ROCIO 25,800 1,350 36,000 1,800 64,950 25,800 0,750 36,000 0,700 63,250 15/12/2022
RUIZ VALVERDE, ALEJANDRO 1,200 0,000 35,000 0,400 36,600 1,200 0,000 35,000 0,000 36,200 15/12/2022
RUIZ VELAZQUEZ, ANA MARIA 0,000 50,050 32,000 0,375 82,425 0,000 4,200 32,000 0,200 36,400 15/12/2022
RUIZ VICENTE, FRANCISCA JESÚS 0,300 52,650 36,000 3,000 91,950 0,300 44,250 36,000 3,000 83,550 15/12/2022
RUIZ-HENESTROSA FAIÑA, SUSANA 51,300 3,450 36,000 0,000 90,750 51,300 3,450 36,000 0,000 90,750 15/12/2022
RUIZ-HENESTROSA NIÑO, MARIA CARMEN 17,400 6,200 36,000 12,500 72,100 17,400 6,200 36,000 8,000 67,600 15/12/2022
RUIZ-MATEOS GONZÁLEZ, MARTA 9,600 4,500 36,000 0,100 50,200 9,600 0,000 36,000 0,100 45,700 15/12/2022
RULL MARTÍNEZ, INMACULADA 18,300 11,400 36,000 2,800 68,500 18,300 11,400 36,000 2,500 68,200 15/12/2022
RUMEGA -, LOREDANA 1,500 12,000 36,000 2,800 52,300 1,500 12,000 36,000 2,500 52,000 15/12/2022
RUS LAGUNA, JAIME 13,800 0,000 36,000 2,700 52,500 13,800 0,000 36,000 1,500 51,300 15/12/2022
RUS VALERO, LUISA MARIA 13,800 2,200 36,000 9,200 61,200 13,800 1,200 36,000 9,200 60,200 15/12/2022
RUZ PIZARRO, RAFAEL TOMÁS 11,700 26,100 36,000 10,200 84,000 11,700 26,100 36,000 9,400 83,200 15/12/2022
SAAVEDRA CHACÓN, JOSEFA 20,400 6,900 39,000 5,300 71,600 20,400 6,900 36,000 5,300 68,600 15/12/2022
SAAVEDRA PINZON, ANDREA 8,400 47,700 32,000 6,000 94,100 8,400 37,800 32,000 6,000 84,200 15/12/2022
SAAVEDRA RODRIGUEZ, ROCIO 12,600 0,000 36,000 1,500 50,100 12,600 0,000 36,000 1,500 50,100 15/12/2022
SABORIDO ELOSEGUI, SONIA 5,400 0,300 16,400 1,500 23,600 5,400 0,000 15,650 0,000 21,050 15/12/2022
SAETA MARTOS, LAURA 5,700 15,000 36,000 1,400 58,100 5,700 15,000 36,000 0,400 57,100 15/12/2022
SAEZ BUENO, AFRICA 16,500 43,800 30,000 7,750 98,050 16,500 43,800 30,000 7,550 97,850 15/12/2022
SAEZ REQUENA, ANA 0,300 1,800 39,000 0,050 41,150 0,300 0,000 38,000 0,050 38,350 15/12/2022
SAEZ RUIZ, ISABEL MARIA 13,500 0,000 36,000 2,850 52,350 13,500 0,000 36,000 2,750 52,250 15/12/2022
SÁEZ ZOTANO, MANUEL 46,500 0,000 36,000 4,000 86,500 46,500 0,000 36,000 4,000 86,500 15/12/2022
SALAMEH BORRERO, MÍRIAM 15,000 0,150 36,000 0,300 51,450 15,000 0,150 36,000 0,300 51,450 15/12/2022
SALAS ÁLVAREZ, MARÍA 13,500 0,700 36,000 0,500 50,700 13,500 0,700 36,000 0,500 50,700 15/12/2022
SALAS BRAVO, Mª DEL MAR 33,550 26,700 32,000 6,050 98,300 33,550 26,700 32,000 6,050 98,300 15/12/2022
SALAS FERNANDEZ, ALEXANDRA 0,000 34,800 30,000 0,000 64,800 0,000 34,800 30,000 0,000 64,800 15/12/2022
SALAS FERNANDEZ, GEMMA 12,900 0,000 36,000 1,300 50,200 12,900 0,000 36,000 1,300 50,200 15/12/2022
SALAS FERNANDEZ, MARIA CONCEPCION 6,000 16,350 30,000 0,000 52,350 6,000 0,750 30,000 0,000 36,750 15/12/2022
SALAS GARCIA, ANA MARIA 10,800 0,000 36,000 0,500 47,300 10,800 0,000 36,000 0,500 47,300 15/12/2022
SALDAÑA DEL CAMPO, SANDRA 22,800 0,850 39,000 6,800 69,450 22,800 0,000 39,000 6,500 68,300 15/12/2022
SALDAÑA HERNANDEZ, ANA ISABEL 30,000 4,150 36,000 20,000 90,150 30,000 3,750 36,000 10,950 80,700 15/12/2022
SALGUEIRO SALGUEIRO, SILVANA 0,600 25,800 35,000 0,000 61,400 0,600 8,700 30,000 0,000 39,300 15/12/2022
SALGUERO CANO, VICTORIA 9,300 0,000 36,000 6,450 51,750 9,300 0,000 36,000 6,400 51,700 15/12/2022
SALGUERO GARCÍA, CARMEN 9,600 8,100 36,000 4,500 58,200 9,600 8,100 36,000 4,500 58,200 15/12/2022
SALGUERO REY, JOSE MANUEL 0,600 27,300 36,000 3,500 67,400 0,600 27,300 36,000 3,500 67,400 15/12/2022
SALINAS CÁRDENAS, FRANCISCO GABRIEL 10,800 0,000 36,000 8,200 55,000 10,800 0,000 36,000 8,100 54,900 15/12/2022
SALINAS CASAS, PEDRO 23,400 42,200 36,000 0,300 101,900 23,400 42,200 36,000 0,000 101,600 15/12/2022
SALMERON RAMIREZ, MARIA JOSE 6,000 69,000 30,000 3,000 103,000 6,000 63,600 30,000 3,000 102,600 15/12/2022
SALMERÓN SALGUERO, SORAYA 21,300 34,200 36,000 0,000 91,500 21,300 34,200 36,000 0,000 91,500 15/12/2022
SALMERÓN SALVADOR, ALEJANDRO 10,200 17,950 36,000 0,500 64,650 10,200 17,950 36,000 0,500 64,650 15/12/2022
SALMERÓN SALVADOR, JOSE JAVIER 7,800 9,600 36,000 0,500 53,900 7,800 9,600 36,000 0,500 53,900 15/12/2022
SALTO CAMPILLOS, PABLO 1,200 0,000 36,000 0,000 37,200 1,200 0,000 36,000 0,000 37,200 15/12/2022
SALTO REINA, MERCEDES 1,200 0,000 36,000 0,000 37,200 1,200 0,000 36,000 0,000 37,200 15/12/2022
SALVADOR PULIDO, MACARENA 3,600 32,700 36,000 0,500 72,800 3,600 30,900 34,175 0,500 69,175 15/12/2022
SAMPEDRO SANCHEZ, BERTA 9,300 0,000 36,000 2,400 47,700 9,300 0,000 36,000 2,400 47,700 15/12/2022
SAN JOSE NAFARRATE, ANA 52,800 18,200 36,000 0,000 106,000 52,800 16,400 36,000 0,000 105,200 15/12/2022
SANCHA DÍAZ, NURIA 12,900 0,000 36,000 2,600 51,500 12,900 0,000 36,000 1,400 50,300 15/12/2022
SÁNCHEZ ACOSTA, MARÍA DEL MAR 0,000 10,050 39,000 0,575 49,625 0,000 2,850 39,000 0,100 41,950 15/12/2022
SÁNCHEZ ADÁN, ADELA MARÍA 0,000 5,700 36,000 3,100 44,800 0,000 5,700 36,000 0,000 41,700 15/12/2022
SANCHEZ AGUDO, TAMARA 30,600 3,900 36,000 5,200 75,700 30,600 3,300 36,000 2,500 72,400 15/12/2022
SÁNCHEZ ALONSO, ANA 6,900 11,200 36,000 3,000 57,100 6,900 9,200 36,000 3,000 55,100 15/12/2022
SANCHEZ ALONSO, PATRICIA 20,700 17,700 36,000 9,650 84,050 20,700 17,700 36,000 7,250 81,650 15/12/2022
SÁNCHEZ ÁLVAREZ, MARIA JOSÉ 0,300 21,300 36,000 0,000 57,600 0,300 7,200 28,975 0,000 36,475 15/12/2022
SANCHEZ ALVAREZ, URSULA 0,000 20,100 38,000 1,500 59,600 0,000 20,100 35,000 0,000 55,100 15/12/2022
SANCHEZ AMUEDO, JOSE ANTONIO 29,400 0,000 36,000 8,200 73,600 29,400 0,000 33,050 6,000 68,450 15/12/2022
SANCHEZ ARANDA, INMACULADA 68,400 0,000 35,000 0,000 103,400 68,400 0,000 31,250 0,000 99,650 15/12/2022
SÁNCHEZ ARREBOLA, MARIA FRANCISCA 7,500 36,300 36,000 9,000 88,800 7,500 36,300 36,000 9,000 88,800 15/12/2022
SÁNCHEZ BARREDO, INMACULADA 0,900 63,300 30,000 0,550 94,750 0,900 57,900 30,000 0,050 88,850 15/12/2022
SANCHEZ BUSTOS, LEONOR 15,600 4,800 36,000 1,000 57,400 15,600 0,000 36,000 1,000 52,600 15/12/2022
SANCHEZ CALDERON, GEMA 27,600 18,000 36,000 0,500 82,100 27,600 0,000 36,000 0,500 64,100 15/12/2022
SANCHEZ CALVO, FRANCISCO JAVIER 34,800 0,450 36,000 0,000 71,250 34,800 0,150 36,000 0,000 70,950 15/12/2022
SANCHEZ CAMACHO, M. BELEN 51,600 2,400 36,000 10,300 100,300 51,600 2,400 36,000 1,550 91,550 15/12/2022
SANCHEZ CANO, YOLANDA 70,000 0,000 30,000 0,000 100,000 70,000 0,000 30,000 0,000 100,000 15/12/2022
SÁNCHEZ CARMONA, PABLO 12,000 0,000 36,000 0,000 48,000 12,000 0,000 36,000 0,000 48,000 15/12/2022
SÁNCHEZ CARRASCO, CRISTINA 0,000 29,100 36,000 0,000 65,100 0,000 14,100 35,900 0,000 50,000 15/12/2022
SANCHEZ CARRASCO, MARIA JOSE 47,700 6,900 36,000 0,000 90,600 47,700 6,900 34,000 0,000 88,600 15/12/2022
SANCHEZ CARRIZOSA, ELENA 6,900 3,300 36,000 0,000 46,200 6,900 0,000 36,000 0,000 42,900 15/12/2022
SANCHEZ CASANOVAS, NEUS 0,000 15,900 36,000 0,000 51,900 0,000 0,000 36,000 0,000 36,000 15/12/2022
SÁNCHEZ COBO, MIREIA 21,900 20,100 32,000 3,000 77,000 21,900 20,100 21,350 3,000 66,350 15/12/2022
SANCHEZ COBOS, ROCIO 31,100 8,500 36,000 3,000 78,600 31,100 8,500 36,000 3,000 78,600 15/12/2022
SANCHEZ COCA, Mº RAQUEL 30,000 0,200 36,000 7,900 74,100 30,000 0,200 36,000 5,350 71,550 15/12/2022
SANCHEZ COTO, VANESA 12,900 10,700 36,000 0,000 59,600 12,900 8,800 36,000 0,000 57,700 15/12/2022
SÁNCHEZ CRIADO, FERNANDO 64,500 3,750 36,000 4,000 108,250 64,500 0,000 36,000 3,400 103,900 15/12/2022
SANCHEZ CUENCA, RAUL 23,100 3,300 36,000 0,000 62,400 23,100 3,300 36,000 0,000 62,400 15/12/2022
SÁNCHEZ DE LA CÁMARA, PAULA 18,900 4,400 36,000 0,950 60,250 18,900 3,600 36,000 0,750 59,250 15/12/2022
SÁNCHEZ DE LEÓN BALSERA, MARÍA DEL CARMEN 5,100 0,000 36,000 0,000 41,100 5,100 0,000 36,000 0,000 41,100 15/12/2022
SANCHEZ DE MIGUEL, MARIA 3,550 5,950 13,975 3,300 26,775 3,550 4,500 5,350 3,000 16,400 15/12/2022
SANCHEZ DE SANTA ANA, CRISTINA 1,200 39,000 36,000 0,000 76,200 1,200 39,000 36,000 0,000 76,200 15/12/2022
SANCHEZ DIAZ, ESPERANZA 13,800 0,000 36,000 6,500 56,300 13,800 0,000 36,000 6,300 56,100 15/12/2022
SÁNCHEZ DÍAZ, VIRGINIA 26,100 0,000 36,000 4,000 66,100 26,100 0,000 36,000 3,500 65,600 15/12/2022
SANCHEZ ESCOBAR, ESTHER 27,900 18,700 39,000 7,100 92,700 27,900 0,000 39,000 3,000 69,900 15/12/2022
SÁNCHEZ ESCUDERO, JAVIER 10,200 30,900 30,000 0,000 71,100 10,200 30,900 30,000 0,000 71,100 15/12/2022
SÁNCHEZ FERNÁNDEZ, ADRIANA 1,500 0,000 39,000 3,650 44,150 1,500 0,000 39,000 3,500 44,000 15/12/2022
SÁNCHEZ FERNÁNDEZ, DARÍO 12,900 1,500 36,000 4,800 55,200 12,900 0,900 36,000 4,500 54,300 15/12/2022
SÁNCHEZ FERNÁNDEZ, MARIA DE LA CRUZ 55,200 1,400 36,000 2,500 95,100 55,200 0,000 36,000 2,500 93,700 15/12/2022
SÁNCHEZ FERNÁNDEZ, MONTSERRAT 6,300 0,000 36,000 0,000 42,300 6,300 0,000 36,000 0,000 42,300 15/12/2022
SANCHEZ GAITAN, ELENA MARIA 4,500 28,200 32,000 3,000 67,700 4,500 24,600 32,000 3,000 64,100 15/12/2022
SANCHEZ GALLARDO, MARIA JOSE 6,000 57,600 36,000 10,525 110,125 6,000 47,400 35,000 6,650 95,050 15/12/2022
SÁNCHEZ GÁLVEZ, ISABEL 15,000 3,900 36,000 0,500 55,400 15,000 3,900 36,000 0,500 55,400 15/12/2022
SÁNCHEZ GÁMEZ, INMACULADA 0,600 35,900 30,000 0,200 66,700 0,600 22,800 30,000 0,050 53,450 15/12/2022
SANCHEZ GARCÍA, ANA MARIA 15,300 1,600 36,000 1,000 53,900 15,300 0,900 36,000 0,200 52,400 15/12/2022
SANCHEZ GARCIA, SILVIA 0,000 7,200 35,000 0,000 42,200 0,000 0,000 35,000 0,000 35,000 15/12/2022
SÁNCHEZ GARRIDO, ANA ISABEL 7,800 0,600 36,000 0,500 44,900 7,800 0,600 36,000 0,500 44,900 15/12/2022
SÁNCHEZ GIMÉNEZ, ANA BELÉN 9,900 14,100 36,000 8,100 68,100 9,900 12,600 36,000 2,100 60,600 15/12/2022
SÁNCHEZ GOMAR, JOSÉ MANUEL 0,000 20,700 36,000 0,000 56,700 0,000 20,700 36,000 0,000 56,700 15/12/2022
SÁNCHEZ GÓMEZ, MARÍA 0,000 8,400 32,000 0,300 40,700 0,000 8,400 32,000 0,000 40,400 15/12/2022
SÁNCHEZ GONZÁLEZ, GLORIA 22,500 14,100 36,000 3,000 75,600 22,500 14,100 36,000 3,000 75,600 15/12/2022
SÁNCHEZ GONZÁLEZ, Mª ROCÍO 58,800 0,000 36,000 3,000 97,800 58,800 0,000 36,000 3,000 97,800 15/12/2022
SANCHEZ GUILLEN, CARMEN VERONICA 53,100 17,700 32,000 17,100 119,100 53,100 17,700 32,000 3,200 105,200 15/12/2022
SANCHEZ GUISADO, CARMEN 0,000 17,400 30,000 0,000 47,400 0,000 9,900 11,800 0,000 21,700 15/12/2022
SÁNCHEZ GUTIÉRREZ, TANIA 0,000 8,700 36,000 0,000 44,700 0,000 8,700 36,000 0,000 44,700 15/12/2022
SANCHEZ HERNANDEZ, MªANGELES 28,800 0,000 36,000 5,200 70,000 28,800 0,000 36,000 5,200 70,000 15/12/2022
SÁNCHEZ- IZQUIERDO CASTELLANOS, SONIA 0,000 9,300 36,000 1,700 47,000 0,000 4,800 35,000 0,750 40,550 15/12/2022
SÁNCHEZ JURADO, MARTA 15,000 0,600 32,075 0,000 47,675 15,000 0,600 30,950 0,000 46,550 15/12/2022
SANCHEZ LOBON, MARINA 2,550 0,000 39,000 7,150 48,700 2,550 0,000 39,000 6,800 48,350 15/12/2022
SANCHEZ LOPEZ, FRANCISCO MANUEL 27,000 0,900 36,000 2,800 66,700 27,000 0,900 36,000 1,400 65,300 15/12/2022
SÁNCHEZ LÓPEZ, VICTORIA 1,800 20,700 36,000 1,400 59,900 1,800 18,300 35,000 1,100 56,200 15/12/2022
SÁNCHEZ LOZANO, MARTA ISABEL 21,600 0,800 36,000 6,600 65,000 21,600 0,200 36,000 3,700 61,500 15/12/2022
SANCHEZ MALDONADO, ROSA MARIA 26,100 0,000 36,000 1,200 63,300 26,100 0,000 35,000 1,100 62,200 15/12/2022
SÁNCHEZ MARCOS, SARA 16,000 0,500 36,000 4,075 56,575 16,000 0,500 36,000 3,625 56,125 15/12/2022
SÁNCHEZ MARÍN, ISABEL MARÍA 18,600 27,000 36,000 0,500 82,100 18,600 27,000 36,000 0,000 81,600 15/12/2022
SANCHEZ MARTIN, LUIS IGNACIO 36,000 0,000 36,000 1,000 73,000 36,000 0,000 36,000 1,000 73,000 15/12/2022
SANCHEZ MARTINEZ, LORETO 11,400 10,800 36,000 1,300 59,500 11,400 10,800 36,000 0,900 59,100 15/12/2022
SANCHEZ MATAMOROS JIMENEZ, MARIA 8,700 1,800 36,000 2,200 48,700 8,700 1,800 36,000 1,000 47,500 15/12/2022
SANCHEZ MATEO, ISABEL 3,300 63,600 12,775 3,000 82,675 3,300 58,200 9,150 3,000 73,650 15/12/2022
SANCHEZ MENA, MARIA BELEN 2,700 23,200 36,000 0,000 61,900 2,700 21,400 36,000 0,000 60,100 15/12/2022
SÁNCHEZ MENACHO, CRISTINA 14,100 0,000 36,000 0,000 50,100 14,100 0,000 36,000 0,000 50,100 15/12/2022
SANCHEZ MIGUELES, CARMEN 6,000 2,400 36,000 1,000 45,400 6,000 0,000 36,000 1,000 43,000 15/12/2022
SANCHEZ MINGORANCE, NATALIA 27,000 26,400 36,000 0,125 89,525 27,000 26,400 36,000 0,100 89,500 15/12/2022
SÁNCHEZ MORENO, ANA ISABEL 4,800 6,200 36,000 3,000 50,000 4,800 0,000 36,000 3,000 43,800 15/12/2022
SANCHEZ MORENO, ELISABET 45,600 3,000 32,000 5,400 86,000 45,600 3,000 32,000 3,100 83,700 15/12/2022
SÁNCHEZ MOYA, ALEJANDRO 17,400 3,600 36,000 6,600 63,600 17,400 3,600 36,000 4,500 61,500 15/12/2022
SANCHEZ MOYANO, IRENE 14,700 9,600 36,000 1,000 61,300 14,700 9,600 36,000 1,000 61,300 15/12/2022
SANCHEZ NARBONA, CRISTINA 2,700 16,800 34,000 1,200 54,700 2,700 16,800 34,000 1,000 54,500 15/12/2022
SANCHEZ NAVARRETE, ROCIO 30,900 4,200 36,000 4,600 75,700 30,900 4,200 36,000 4,300 75,400 15/12/2022
SANCHEZ NAVARRO, SONIA 19,200 0,000 36,000 1,800 57,000 19,200 0,000 36,000 1,500 56,700 15/12/2022
SANCHEZ NAVEDA, FABIAN 9,900 10,800 36,000 0,000 56,700 9,900 10,800 36,000 0,000 56,700 15/12/2022
SANCHEZ OLIVARES, SONIA 0,000 36,900 36,000 0,000 72,900 0,000 21,600 21,400 0,000 43,000 15/12/2022
SANCHEZ OSUNA, INMACULADA 44,100 1,500 36,000 4,825 86,425 44,100 1,500 36,000 4,225 85,825 15/12/2022
SÁNCHEZ PADILLA, YOLANDA 0,300 21,150 36,000 1,375 58,825 0,300 12,900 36,000 0,275 49,475 15/12/2022
SÁNCHEZ PALOMARES, JOSE CARLOS 0,000 28,800 36,000 1,400 66,200 0,000 28,800 36,000 1,400 66,200 15/12/2022
SANCHEZ PEINADO, RICARDO 20,400 12,600 36,000 1,400 70,400 20,400 12,600 36,000 1,100 70,100 15/12/2022
SÁNCHEZ PEREA, JUAN RAMÓN 70,000 3,400 32,000 7,400 109,400 70,000 2,850 30,000 6,000 106,000 15/12/2022
SÁNCHEZ PÉREZ, SHEILA 0,000 11,600 36,000 0,000 47,600 0,000 7,800 36,000 0,000 43,800 15/12/2022
SÁNCHEZ PONCE, LAURA 11,700 1,800 36,000 2,400 51,900 11,700 1,500 36,000 2,400 51,600 15/12/2022
SANCHEZ QUIROS, NOELIA 17,400 3,000 36,000 3,500 59,900 17,400 3,000 36,000 3,500 59,900 15/12/2022
SÁNCHEZ RAMÍREZ, LUCÍA 13,800 3,600 36,000 0,300 53,700 13,800 3,600 36,000 0,000 53,400 15/12/2022
SÁNCHEZ RAMÍREZ, ROCÍO 12,600 5,100 33,000 0,800 51,500 12,600 5,100 33,000 0,500 51,200 15/12/2022
SANCHEZ REAL, JUANA 24,850 4,400 36,000 7,000 72,250 24,850 4,400 36,000 7,000 72,250 15/12/2022
SANCHEZ RESALT, CRISTINA 2,700 16,100 35,000 1,100 54,900 2,700 9,200 35,000 0,500 47,400 15/12/2022
SÁNCHEZ RICO, RAÚL 58,800 13,500 36,000 20,000 126,000 58,800 13,500 36,000 5,000 111,000 15/12/2022
SÁNCHEZ RIVERA, JULIO 0,000 0,000 13,500 0,000 13,500 0,000 0,000 7,500 0,000 7,500 15/12/2022
SÁNCHEZ ROBLES, VICENTE 22,200 0,000 36,000 9,300 67,500 22,200 0,000 36,000 9,300 67,500 15/12/2022
SÁNCHEZ RODRÍGUEZ, JUAN 9,300 17,400 36,000 0,000 62,700 9,300 17,400 36,000 0,000 62,700 15/12/2022
SÁNCHEZ ROJANO, ESTEFANÍA 19,500 3,600 36,000 0,000 59,100 19,500 0,000 36,000 0,000 55,500 15/12/2022
SANCHEZ RUIZ, CLARA 14,700 4,600 36,000 1,300 56,600 14,700 3,700 36,000 1,000 55,400 15/12/2022
SANCHEZ SALAMERO, ELENA 19,800 0,000 36,000 0,000 55,800 19,800 0,000 36,000 0,000 55,800 15/12/2022
SÁNCHEZ SÁNCHEZ, MARÍA JOSÉ 7,800 2,400 36,000 1,500 47,700 7,800 2,400 36,000 0,500 46,700 15/12/2022
SANCHEZ SAYAGO, ISABEL 21,300 0,000 36,000 1,000 58,300 21,300 0,000 34,625 1,000 56,925 15/12/2022
SANCHEZ SELLES, FELIX 10,500 0,000 36,000 4,400 50,900 10,500 0,000 36,000 3,000 49,500 15/12/2022
SANCHEZ SORIANO, MARTA 10,650 3,350 36,000 7,200 57,200 10,650 1,950 36,000 6,600 55,350 15/12/2022
SÁNCHEZ SOTO, SALVADOR 0,600 32,400 36,000 4,700 73,700 0,600 32,400 36,000 4,600 73,600 15/12/2022
SANCHEZ SUERO, LAURA 21,300 0,100 36,000 4,500 61,900 21,300 0,100 36,000 4,500 61,900 15/12/2022
SÁNCHEZ TENA, MERCEDES 0,000 8,700 33,000 0,000 41,700 0,000 4,800 28,000 0,000 32,800 15/12/2022
SANCHEZ TORRES, MARIA 15,000 3,600 39,000 10,500 68,100 15,000 3,000 39,000 1,300 58,300 15/12/2022
SÁNCHEZ VENEGAS, MARIA 0,300 37,500 36,000 2,500 76,300 0,300 18,900 36,000 2,500 57,700 15/12/2022
SANCHEZ VERDUGO, VIRGINIA 25,200 26,100 38,000 2,025 91,325 25,200 26,100 38,000 1,075 90,375 15/12/2022
SÁNCHEZ VILLALBA, ROSARIO 14,750 7,800 36,000 0,000 58,550 14,750 7,800 36,000 0,000 58,550 15/12/2022
SANCHEZ VITORIQUE, MIRIAM 0,000 67,800 37,000 0,950 105,750 0,000 59,400 24,925 0,650 84,975 15/12/2022
SANCHO ARÉVALO, PATRICIA 7,800 2,600 36,000 1,000 47,400 7,800 1,500 36,000 1,000 46,300 15/12/2022
SANCHO OTERO, RODRIGO 0,000 0,000 8,150 0,000 8,150 0,000 0,000 3,000 0,000 3,000 15/12/2022
SANCHO PEREZ, ERIKA 12,500 0,000 36,000 3,300 51,800 12,500 0,000 36,000 3,300 51,800 15/12/2022
SANCHO VELASCO, REBECA 0,000 17,700 32,000 0,000 49,700 0,000 17,700 32,000 0,000 49,700 15/12/2022
SÁNDEZ MACHO, VANESA 30,900 0,000 36,000 0,500 67,400 30,900 0,000 36,000 0,500 67,400 15/12/2022
SANJUÁN MANTAS, CARMEN MARIA 22,200 21,000 36,000 11,300 90,500 22,200 20,500 36,000 3,900 82,600 15/12/2022
SANTAELLA BARCOS, FLORA CONSUELO 15,000 1,500 36,000 1,000 53,500 15,000 0,600 36,000 1,000 52,600 15/12/2022
SANTAELLA SANTAELLA, JOSEFA PILAR 32,400 15,000 30,000 0,150 77,550 32,400 11,400 30,000 0,100 73,900 15/12/2022
SANTAELLA ZÁJARA, CRISTINA 23,700 15,600 36,000 3,000 78,300 23,700 15,600 36,000 3,000 78,300 15/12/2022
SANTAMARÍA JURADO, MARÍA DOLORES 6,900 0,600 36,000 3,000 46,500 6,900 2,400 36,000 3,000 46,500 15/12/2022
SANTANA CAÑIZARES, ANA LIDIA 34,800 21,000 34,000 3,000 92,800 34,800 21,000 34,000 3,000 92,800 15/12/2022
SANTANA HERMOSO, LAURA 14,700 0,000 36,000 1,400 52,100 14,700 0,000 36,000 1,300 52,000 15/12/2022
SANTIAGO CHAFINO, SARA 0,000 13,800 36,000 0,600 50,400 0,000 14,100 34,000 0,600 48,700 15/12/2022
SANTIAGO DURAN, Mª ANGELES 0,000 21,250 33,000 11,450 65,700 0,000 12,450 33,000 7,050 52,500 15/12/2022
SANTIAGO FERNANDEZ, Mª ANGELES 70,000 7,050 33,000 0,750 103,750 70,000 7,050 33,000 0,000 103,000 15/12/2022
SANTIAGO FORNIER, CARMEN 0,000 48,600 30,000 0,000 78,600 0,000 42,600 20,250 0,000 62,850 15/12/2022
SANTIAGO MARQUEZ, MARIA ENCARNACION 4,500 13,800 35,125 2,000 55,425 4,500 3,900 31,375 0,000 39,775 15/12/2022
SANTIAGO PÉREZ, CRISTINA 0,000 14,900 36,000 3,000 53,900 0,000 6,600 36,000 3,000 45,600 15/12/2022
SANTIAGO ROMÁN, ALEJANDRO 5,700 0,000 36,000 1,100 42,800 5,700 0,000 36,000 0,500 42,200 15/12/2022
SANTIAGO SÁNCHEZ, MERCEDES 26,700 1,400 36,000 1,200 65,300 26,700 0,600 36,000 1,200 64,500 15/12/2022
SANTIBURCIO GONZÁLEZ, JOSEFA 0,000 15,200 36,000 0,500 51,700 0,000 15,200 36,000 0,500 51,700 15/12/2022
SANTISTEBAN SÁNCHEZ, GEMA MARÍA 16,800 44,700 35,000 0,150 96,650 16,800 41,100 35,000 0,100 93,000 15/12/2022
SANTOS BLANCO, LETICIA 7,800 27,600 36,000 0,000 71,400 7,800 25,500 36,000 0,000 69,300 15/12/2022
SANTOS CARRASCO, CARMEN ROCIO 6,600 13,500 36,000 0,000 56,100 6,600 13,500 36,000 0,000 56,100 15/12/2022
SANTOS CORONEL, JOSÉ 21,900 25,200 36,000 1,000 84,100 21,900 24,300 36,000 0,500 82,700 15/12/2022
SANTOS FERNANDEZ, GEMA AZAHARA 0,900 21,000 35,000 1,000 57,900 0,900 9,600 25,950 0,000 36,450 15/12/2022
SANTOS FERNÁNDEZ, MARINA 8,700 14,100 36,000 1,300 60,100 8,700 14,100 36,000 1,300 60,100 15/12/2022
SANTOS LUNA, ANTONIO JESUS 1,800 20,000 36,000 0,500 58,300 1,800 11,000 36,000 0,500 49,300 15/12/2022
SANTOS PACHECO, TAMARA 45,000 3,800 36,000 2,450 87,250 45,000 3,800 36,000 2,150 86,950 15/12/2022
SANTOS PEREZ, Mª LUISA 9,600 0,000 30,000 0,000 39,600 9,600 0,000 30,000 0,000 39,600 15/12/2022

* Los candidatos marcados con un asterisco no alcanzan la nota mínima exigida una vez baremados

- Al posicionarse sobre el número de página le aparecerá el rango alfabético de apellidos, nombre que contiene dicha página

[1]  [2]  [3]  [4]  [5]  [6]  [7]  [8]  [9]  [10]  [11]  [12]  [13]  [14]  [15]  [16]  [17]  [18]  [19]  [20]  [21]  [22]  [23]  [24]  [25] 


Color de candidatos/as que por autobaremo alcanzan puntuación mínima para formar parte de la bolsa Candidatos/as que por autobaremo alcanzan puntuación mínima para formar parte de la bolsa

Color de Candidatos/as que no alcanzan puntuación mínima para formar parte de la bolsa Candidatos/as que no alcanzan puntuación mínima para formar parte de la bolsa



[Volver]